createdAt,value
2022-11-28T00:00:46.932Z,12.93
2022-11-28T00:05:48.930Z,22.02
2022-11-28T00:10:50.919Z,16.77
2022-11-28T00:16:00.248Z,22.33
2022-11-28T00:21:07.954Z,18.70
2022-11-28T00:26:22.057Z,14.10
2022-11-28T00:31:30.280Z,18.08
2022-11-28T00:36:32.215Z,16.80
2022-11-28T00:41:35.426Z,20.10
2022-11-28T00:46:37.311Z,16.15
2022-11-28T00:51:39.552Z,17.27
2022-11-28T00:56:41.447Z,15.65
2022-11-28T01:01:44.388Z,19.05
2022-11-28T01:06:49.068Z,14.00
2022-11-28T01:11:53.845Z,18.35
2022-11-28T01:16:55.685Z,20.10
2022-11-28T01:21:57.545Z,18.35
2022-11-28T01:26:59.516Z,20.77
2022-11-28T01:32:01.416Z,22.88
2022-11-28T01:37:03.375Z,25.77
2022-11-28T01:42:05.210Z,22.58
2022-11-28T01:47:07.068Z,19.83
2022-11-28T01:52:13.443Z,20.55
2022-11-28T01:57:19.792Z,22.45
2022-11-28T02:02:36.928Z,21.55
2022-11-28T02:07:40.966Z,18.83
2022-11-28T02:13:05.641Z,21.05
2022-11-28T02:18:31.370Z,20.33
2022-11-28T02:23:38.780Z,20.83
2022-11-28T02:29:11.348Z,22.83
2022-11-28T02:34:21.756Z,17.20
2022-11-28T02:39:41.646Z,18.92
2022-11-28T02:44:55.832Z,19.05
2022-11-28T02:50:12.144Z,27.05
2022-11-28T02:55:15.327Z,25.85
2022-11-28T03:00:23.848Z,20.80
2022-11-28T03:05:43.163Z,20.38
2022-11-28T03:10:57.170Z,23.10
2022-11-28T03:16:16.869Z,22.52
2022-11-28T03:21:33.045Z,22.80
2022-11-28T03:26:47.020Z,25.45
2022-11-28T03:31:57.599Z,17.88
2022-11-28T03:37:11.612Z,22.80
2022-11-28T03:42:21.214Z,23.02
2022-11-28T03:47:28.402Z,24.65
2022-11-28T03:52:35.589Z,22.00
2022-11-28T03:57:47.762Z,20.52
2022-11-28T04:03:02.407Z,19.48
2022-11-28T04:08:19.433Z,24.75
2022-11-28T04:13:26.186Z,20.63
2022-11-28T04:18:40.237Z,19.17
2022-11-28T04:23:45.042Z,18.80
2022-11-28T04:28:50.072Z,23.92
2022-11-28T04:33:58.374Z,29.20
2022-11-28T04:39:01.635Z,22.20
2022-11-28T04:44:13.646Z,26.92
2022-11-28T04:49:15.610Z,23.80
2022-11-28T04:54:33.631Z,21.55
2022-11-28T04:59:35.582Z,20.60
2022-11-28T05:04:38.502Z,23.42
2022-11-28T05:09:40.359Z,28.65
2022-11-28T05:14:42.488Z,27.20
2022-11-28T05:19:44.413Z,30.73
2022-11-28T05:24:46.422Z,31.02
2022-11-28T05:29:52.221Z,27.80
2022-11-28T05:34:54.279Z,25.15
2022-11-28T05:39:56.152Z,28.48
2022-11-28T05:44:58.018Z,25.80
2022-11-28T05:50:00.018Z,24.60
2022-11-28T05:55:01.881Z,25.63
2022-11-28T06:00:04.458Z,32.15
2022-11-28T06:05:40.421Z,28.85
2022-11-28T06:10:35.859Z,24.50
2022-11-28T06:15:38.650Z,30.23
2022-11-28T06:20:40.622Z,29.60
2022-11-28T06:25:42.453Z,27.58
2022-11-28T06:30:44.688Z,25.85
2022-11-28T06:35:46.482Z,27.38
2022-11-28T06:40:48.277Z,31.35
2022-11-28T06:45:50.152Z,28.63
2022-11-28T06:50:53.017Z,24.00
2022-11-28T06:55:55.037Z,24.98
2022-11-28T07:00:56.900Z,25.35
2022-11-28T07:06:04.220Z,27.25
2022-11-28T07:11:12.946Z,25.23
2022-11-28T07:16:21.332Z,22.75
2022-11-28T07:21:24.150Z,26.98
2022-11-28T07:26:26.056Z,31.38
2022-11-28T07:31:32.250Z,24.17
2022-11-28T07:36:34.422Z,25.25
2022-11-28T07:41:36.325Z,27.83
2022-11-28T07:46:39.523Z,24.27
2022-11-28T07:51:42.311Z,21.60
2022-11-28T07:57:11.514Z,26.83
2022-11-28T08:02:06.113Z,26.23
2022-11-28T08:07:07.955Z,23.80
2022-11-28T08:12:09.744Z,27.70
2022-11-28T08:17:11.558Z,23.20
2022-11-28T08:22:13.468Z,28.42
2022-11-28T08:27:15.244Z,25.48
2022-11-28T08:32:17.300Z,23.95
2022-11-28T08:37:19.123Z,26.52
2022-11-28T08:42:21.466Z,23.83
2022-11-28T08:47:23.355Z,25.02
2022-11-28T08:52:25.549Z,22.17
2022-11-28T08:57:27.345Z,25.33
2022-11-28T09:02:29.219Z,21.98
2022-11-28T09:07:31.196Z,29.45
2022-11-28T09:12:33.037Z,23.33
2022-11-28T09:17:34.842Z,20.73
2022-11-28T09:22:36.688Z,20.02
2022-11-28T09:27:38.508Z,21.33
2022-11-28T09:32:40.441Z,23.95
2022-11-28T09:37:42.373Z,23.92
2022-11-28T09:42:45.788Z,21.10
2022-11-28T09:47:52.250Z,27.30
2022-11-28T09:53:02.575Z,24.80
2022-11-28T09:58:24.542Z,25.50
2022-11-28T10:03:39.563Z,27.65
2022-11-28T10:09:02.972Z,29.45
2022-11-28T10:14:39.958Z,25.15
2022-11-28T10:20:09.361Z,32.15
2022-11-28T10:25:22.815Z,27.02
2022-11-28T10:30:27.488Z,27.63
2022-11-28T10:35:50.883Z,33.05
2022-11-28T10:41:13.442Z,25.63
2022-11-28T10:46:18.011Z,27.42
2022-11-28T10:51:19.844Z,25.70
2022-11-28T10:56:40.410Z,27.73
2022-11-28T11:01:46.004Z,25.70
2022-11-28T11:07:20.223Z,26.33
2022-11-28T11:12:30.722Z,28.38
2022-11-28T11:17:36.582Z,26.67
2022-11-28T11:22:38.615Z,29.85
2022-11-28T11:28:03.550Z,31.38
2022-11-28T11:33:13.958Z,29.02
2022-11-28T11:38:21.512Z,37.33
2022-11-28T11:43:29.331Z,27.83
2022-11-28T11:48:41.183Z,26.48
2022-11-28T11:53:44.174Z,33.58
2022-11-28T11:58:54.388Z,30.92
2022-11-28T12:04:23.669Z,33.10
2022-11-28T12:09:42.281Z,28.02
2022-11-28T12:14:44.956Z,26.35
2022-11-28T12:20:02.520Z,29.88
2022-11-28T12:25:10.500Z,22.40
2022-11-28T12:30:44.929Z,26.33
2022-11-28T12:36:03.303Z,26.73
2022-11-28T12:41:05.441Z,27.10
2022-11-28T12:46:22.459Z,29.13
2022-11-28T12:51:59.434Z,30.60
2022-11-28T12:57:36.762Z,28.48
2022-11-28T13:03:03.150Z,30.08
2022-11-28T13:08:23.649Z,30.75
2022-11-28T13:18:46.000Z,27.60
2022-11-28T13:24:07.131Z,28.08
2022-11-28T13:29:20.864Z,21.95
2022-11-28T13:34:23.258Z,26.80
2022-11-28T13:39:27.842Z,26.75
2022-11-28T13:44:59.331Z,29.27
2022-11-28T13:50:25.834Z,27.27
2022-11-28T13:55:36.836Z,28.20
2022-11-28T14:00:40.988Z,33.63
2022-11-28T14:05:45.408Z,26.73
2022-11-28T14:10:58.080Z,29.45
2022-11-28T14:16:09.643Z,26.63
2022-11-28T14:21:23.561Z,30.50
2022-11-28T14:26:35.314Z,31.80
2022-11-28T14:31:39.076Z,33.58
2022-11-28T14:36:43.162Z,32.88
2022-11-28T14:42:03.935Z,26.88
2022-11-28T14:57:45.008Z,29.63
2022-11-28T15:02:56.259Z,33.97
2022-11-28T15:08:25.541Z,28.45
2022-11-28T15:13:30.557Z,33.45
2022-11-28T15:18:33.494Z,30.90
2022-11-28T15:23:38.544Z,42.08
2022-11-28T15:28:40.421Z,38.13
2022-11-28T15:33:42.444Z,41.28
2022-11-28T15:38:44.356Z,36.00
2022-11-28T15:43:46.504Z,37.40
2022-11-28T15:48:50.834Z,47.35
2022-11-28T15:53:52.795Z,81.60
2022-11-28T15:58:55.064Z,36.03
2022-11-28T16:04:07.784Z,28.35
2022-11-28T16:09:18.936Z,34.65
2022-11-28T16:14:31.821Z,33.08
2022-11-28T16:19:36.661Z,33.75
2022-11-28T16:24:50.484Z,39.20
2022-11-28T16:29:52.357Z,39.40
2022-11-28T16:34:55.727Z,34.70
2022-11-28T16:40:14.830Z,36.00
2022-11-28T16:45:21.226Z,42.40
2022-11-28T16:50:25.206Z,34.53
2022-11-28T16:55:38.647Z,37.75
2022-11-28T17:01:03.003Z,45.47
2022-11-28T17:06:04.966Z,39.08
2022-11-28T17:11:06.862Z,42.63
2022-11-28T17:16:17.744Z,41.92
2022-11-28T17:21:33.267Z,39.25
2022-11-28T17:26:35.077Z,37.45
2022-11-28T17:31:37.472Z,40.33
2022-11-28T17:36:39.340Z,43.72
2022-11-28T17:41:41.378Z,41.63
2022-11-28T17:46:43.198Z,39.72
2022-11-28T17:51:45.755Z,44.63
2022-11-28T17:56:52.650Z,47.85
2022-11-28T18:01:54.628Z,36.72
2022-11-28T18:07:00.191Z,41.33
2022-11-28T18:12:01.980Z,41.38
2022-11-28T18:17:04.264Z,42.58
2022-11-28T18:22:08.579Z,45.00
2022-11-28T18:27:10.384Z,45.42
2022-11-28T18:32:12.325Z,45.55
2022-11-28T18:37:14.151Z,44.63
2022-11-28T18:42:17.525Z,39.00
2022-11-28T18:47:19.623Z,49.33
2022-11-28T18:52:21.464Z,49.15
2022-11-28T18:57:23.611Z,43.85
2022-11-28T19:02:25.567Z,44.30
2022-11-28T19:07:27.539Z,48.97
2022-11-28T19:12:29.430Z,48.85
2022-11-28T19:17:31.344Z,46.67
2022-11-28T19:22:35.716Z,44.65
2022-11-28T19:27:37.717Z,39.28
2022-11-28T19:32:39.537Z,39.42
2022-11-28T19:37:42.258Z,44.13
2022-11-28T19:42:44.060Z,39.92
2022-11-28T19:47:48.655Z,50.92
2022-11-28T19:52:50.625Z,43.58
2022-11-28T19:57:52.904Z,43.03
2022-11-28T20:02:55.071Z,40.92
2022-11-28T20:07:58.616Z,48.25
2022-11-28T20:13:00.764Z,46.17
2022-11-28T20:18:03.779Z,44.90
2022-11-28T20:23:06.603Z,44.58
2022-11-28T20:28:08.699Z,47.08
2022-11-28T20:33:10.774Z,44.72
2022-11-28T20:38:12.847Z,41.28
2022-11-28T20:43:14.681Z,44.03
2022-11-28T20:48:16.529Z,39.35
2022-11-28T20:53:23.679Z,43.28
2022-11-28T20:58:28.750Z,41.72
2022-11-28T21:03:30.578Z,44.85
2022-11-28T21:08:33.835Z,41.70
2022-11-28T21:13:35.831Z,40.70
2022-11-28T21:18:39.283Z,44.30
2022-11-28T21:23:42.377Z,39.97
2022-11-28T21:28:45.934Z,35.97
2022-11-28T21:33:49.194Z,42.38
2022-11-28T21:38:56.449Z,46.72
2022-11-28T21:43:59.766Z,37.67
2022-11-28T21:49:02.986Z,38.13
2022-11-28T21:54:04.957Z,38.30
2022-11-28T21:59:07.095Z,31.20
2022-11-28T22:04:10.740Z,35.83
2022-11-28T22:09:13.567Z,30.88
2022-11-28T22:14:15.786Z,34.35
2022-11-28T22:19:17.814Z,27.63
2022-11-28T22:24:19.776Z,41.67
2022-11-28T22:29:22.001Z,37.75
2022-11-28T22:34:24.021Z,34.63
2022-11-28T22:39:25.915Z,28.77
2022-11-28T22:44:27.911Z,30.95
2022-11-28T22:49:29.830Z,32.70
2022-11-28T22:54:31.811Z,30.90
2022-11-28T22:59:35.305Z,35.20
2022-11-28T23:04:38.081Z,31.63
2022-11-28T23:09:40.202Z,34.35
2022-11-28T23:14:42.444Z,30.02
2022-11-28T23:19:44.759Z,33.67
2022-11-28T23:24:46.638Z,28.20
2022-11-28T23:29:48.508Z,32.35
2022-11-28T23:34:50.473Z,36.28
2022-11-28T23:39:52.314Z,30.70
2022-11-28T23:44:54.174Z,36.30
2022-11-28T23:49:56.017Z,34.33
2022-11-28T23:54:57.929Z,35.15
